Holmogadd, Sweden

2:51 PM CET on November 24, 2014 (GMT +0100)
Umea | Change Station
CLOSE
Current Station
Airport
Location: Umea,
Elevation: 23 ft
Nearby Weather Stations

Elev 23 ft 63.79 °N, 20.28 °E | Updated 31 minutes ago

Light Rain
Light Rain
41 °F
Feels Like 32 °F
N
17
Wind Variable Wind from South

Today
High -- | Low -- °F
--% Chance of Precip.
Yesterday
High -- | Low -- °F
Precip. -- in
8:27 AM 2:18 PM
Waxing Crescent, 5% visible
Pressure 29.98 in
Visibility 6.2 miles
Clouds Overcast 900 ft
Windchill 32 °F
Dew Point 37 °F
Humidity 87%
Rainfall 0.00 in
Snow Depth Not available.
UV 0 out of 12
Pollen Not available.
Air Quality Not available.
Flu Activity Not available.
METAR ESNU 241320Z 17015KT 9999 -RA OVC009 05/03 Q1015 R14/29//60

More Conditions Fewer Conditions

Pressure 29.98 in
Visibility 6.2 miles
Clouds Overcast 900 ft
Windchill 32 °F
Dew Point 37 °F
Humidity 87%
Rainfall 0.00 in
Snow Depth Not available.
UV 0 out of 12
Pollen Not available.
Air Quality Not available.
Flu Activity Not available.
METAR ESNU 241320Z 17015KT 9999 -RA OVC009 05/03 Q1015 R14/29//60

More Conditions Fewer Conditions

10-Day Weather Forecast

Almanac

Astronomy

Nov. 24, 2014 Rise Set
Actual Time
Civil Twilight
Nautical Twilight
Astronomical Twilight
Moon
Length of Visible Light
Length of Day
Tomorrow will be .
, % of the Moon is Illuminated

Today's Extremes

Country Highs Country Lows

Community

WunderPhotos

Upload Photos

1,773,332 photos uploaded!

WunderBlogs® & News

Nearby

Air Quality

  Air Quality AQ Index Pollutant
Not available.

Snow Depth

Station Depth Elevation

Earthquake Activity

City Distance Mag. Time & Date
Minimum magnitude displayed is 2.5.

Coastal Water Temperatures

Place Temperature

Nearby Weather Stations